Euro Spirit — ELUW8 — position and weather

sailwx.info

Track history (hours):
 
Tides and Currents Weather Stations Pressure Air Temp Water Temp Dewpoint Dewpoint Depression Visibility Wind Speed Wind Dir Waves Ship Positions

Euro Spirit

Last reported at 2018-May-22 00:59 UTC. Time now 2018-May-22 17:26 UTC.
Position N 21°47' E 067°04'.

Length 188 m; beam 31.2 m.

Type: Cargo ship. MMSI: 636010789.

Date/timePositionNaut miles runAvg speedWind from/ knotsBaromVisibWave heightAir tempDewpointWater temp
2018-May-22 00:59N 21°47' E 067°04'919.1
2018-May-22 00:30N 21°44' E 067°13'1018.9
2018-May-21 23:58N 21°39' E 067°23'918.6
2018-May-21 23:28N 21°36' E 067°32'918.6
2018-May-21 23:01N 21°33' E 067°41'2118.8
2018-May-21 21:54N 21°25' E 068°01'2219.1
2018-May-21 20:45N 21°16' E 068°23'519.4
2018-May-21 20:30N 21°14' E 068°28'1019.3
2018-May-21 20:00N 21°10' E 068°37'1019.3
2018-May-21 19:29N 21°07' E 068°47'919.5
2018-May-21 19:00N 21°03' E 068°57'1019.4
2018-May-21 18:30N 20°60' E 069°06'1019.3
2018-May-21 18:00N 20°56' E 069°16'1119.2
2018-May-21 17:26N 20°52' E 069°27'819.0
2018-May-21 17:00N 20°49' E 069°35'918.9
2018-May-21 16:31N 20°46' E 069°44'918.8
2018-May-21 16:01N 20°43' E 069°54'1018.9
2018-May-21 15:30N 20°40' E 070°03'918.7
2018-May-21 15:00N 20°37' E 070°13'918.7
2018-May-21 14:30N 20°34' E 070°22'1118.5
2018-May-21 13:54N 20°30' E 070°33'718.1
2018-May-21 13:30N 20°28' E 070°41'917.9
2018-May-21 13:00N 20°25' E 070°50'816.4
2018-May-21 12:30N 20°26' E 070°58'917.1
2018-May-21 12:00N 20°31' E 071°06'816.7
2018-May-21 11:30N 20°35' E 071°14'916.1
2018-May-21 10:57N 20°40' E 071°22'915.5
2018-May-21 10:21N 20°48' E 071°27'412.0
2018-May-21 10:00N 20°51' E 071°29'4 7.1
2018-May-21 09:30N 20°55' E 071°30'0 0.2
2018-May-21 08:06N 20°55' E 071°30'0 0.0
2018-May-21 07:54N 20°55' E 071°30'0 0.0
2018-May-21 07:24N 20°55' E 071°30'0 0.0
2018-May-21 06:54N 20°55' E 071°30'0 0.0
2018-May-21 06:06N 20°55' E 071°30'0 0.0
2018-May-21 06:00N 20°55' E 071°30'0 0.0
2018-May-21 04:42N 20°55' E 071°30'0 0.0
2018-May-21 04:18N 20°55' E 071°30'0 0.0
2018-May-21 03:54N 20°55' E 071°30'0 0.0
2018-May-21 03:24N 20°55' E 071°30'0 0.0
2018-May-21 02:42N 20°55' E 071°30'0 0.0
2018-May-21 02:24N 20°55' E 071°30'0 0.0
2018-May-21 01:54N 20°55' E 071°30'0 0.0
2018-May-21 01:19N 20°55' E 071°30'0 0.5
2018-May-21 01:00N 20°55' E 071°31'3 5.6
2018-May-21 00:27N 20°52' E 071°31'3 7.1
2018-May-21 00:00N 20°49' E 071°30'4 8.3
2018-May-20 23:30N 20°44' E 071°30'611.3
2018-May-20 23:00N 20°41' E 071°25'611.3
2018-May-20 22:29N 20°38' E 071°20'711.9
2018-May-20 21:56N 20°34' E 071°15'512.0
2018-May-20 21:30N 20°31' E 071°10'612.4
2018-May-20 21:00N 20°28' E 071°04'712.8
2018-May-20 20:28N 20°24' E 070°58'610.9
2018-May-20 19:56N 20°23' E 070°52'511.2
2018-May-20 19:30N 20°25' E 070°47'612.0
2018-May-20 18:59N 20°27' E 070°41'815.1
2018-May-20 18:28N 20°29' E 070°34'817.4
2018-May-20 18:00N 20°31' E 070°25'917.6
2018-May-20 17:30N 20°34' E 070°16'917.9
2018-May-20 17:00N 20°37' E 070°07'917.7
2018-May-20 16:30N 20°40' E 069°58'917.9
2018-May-20 16:00N 20°43' E 069°49'917.9
2018-May-20 15:31N 20°46' E 069°40'918.0
2018-May-20 15:00N 20°49' E 069°31'1217.8
2018-May-20 14:20N 20°54' E 069°20'617.7
2018-May-20 14:00N 20°56' E 069°14'  
Track history (hours):
 
Tides and Currents Weather Stations Pressure Air Temp Water Temp Dewpoint Dewpoint Depression Visibility Wind Speed Wind Dir Waves Ship Positions

Euro Spirit

Last reported at 2018-May-22 00:59 UTC. Time now 2018-May-22 17:26 UTC.
Position N 21°47' E 067°04'.

Length 188 m; beam 31.2 m.

Type: Cargo ship. MMSI: 636010789.

Date/timePositionNaut miles runAvg speedWind from/ knotsBaromVisibWave heightAir tempDewpointWater temp
2018-May-22 00:59N 21°47' E 067°04'919.1
2018-May-22 00:30N 21°44' E 067°13'1018.9
2018-May-21 23:58N 21°39' E 067°23'918.6
2018-May-21 23:28N 21°36' E 067°32'918.6
2018-May-21 23:01N 21°33' E 067°41'2118.8
2018-May-21 21:54N 21°25' E 068°01'2219.1
2018-May-21 20:45N 21°16' E 068°23'519.4
2018-May-21 20:30N 21°14' E 068°28'1019.3
2018-May-21 20:00N 21°10' E 068°37'1019.3
2018-May-21 19:29N 21°07' E 068°47'919.5
2018-May-21 19:00N 21°03' E 068°57'1019.4
2018-May-21 18:30N 20°60' E 069°06'1019.3
2018-May-21 18:00N 20°56' E 069°16'1119.2
2018-May-21 17:26N 20°52' E 069°27'819.0
2018-May-21 17:00N 20°49' E 069°35'918.9
2018-May-21 16:31N 20°46' E 069°44'918.8
2018-May-21 16:01N 20°43' E 069°54'1018.9
2018-May-21 15:30N 20°40' E 070°03'918.7
2018-May-21 15:00N 20°37' E 070°13'918.7
2018-May-21 14:30N 20°34' E 070°22'1118.5
2018-May-21 13:54N 20°30' E 070°33'718.1
2018-May-21 13:30N 20°28' E 070°41'917.9
2018-May-21 13:00N 20°25' E 070°50'816.4
2018-May-21 12:30N 20°26' E 070°58'917.1
2018-May-21 12:00N 20°31' E 071°06'816.7
2018-May-21 11:30N 20°35' E 071°14'916.1
2018-May-21 10:57N 20°40' E 071°22'915.5
2018-May-21 10:21N 20°48' E 071°27'412.0
2018-May-21 10:00N 20°51' E 071°29'4 7.1
2018-May-21 09:30N 20°55' E 071°30'0 0.2
2018-May-21 08:06N 20°55' E 071°30'0 0.0
2018-May-21 07:54N 20°55' E 071°30'0 0.0
2018-May-21 07:24N 20°55' E 071°30'0 0.0
2018-May-21 06:54N 20°55' E 071°30'0 0.0
2018-May-21 06:06N 20°55' E 071°30'0 0.0
2018-May-21 06:00N 20°55' E 071°30'0 0.0
2018-May-21 04:42N 20°55' E 071°30'0 0.0
2018-May-21 04:18N 20°55' E 071°30'0 0.0
2018-May-21 03:54N 20°55' E 071°30'0 0.0
2018-May-21 03:24N 20°55' E 071°30'0 0.0
2018-May-21 02:42N 20°55' E 071°30'0 0.0
2018-May-21 02:24N 20°55' E 071°30'0 0.0
2018-May-21 01:54N 20°55' E 071°30'0 0.0
2018-May-21 01:19N 20°55' E 071°30'0 0.5
2018-May-21 01:00N 20°55' E 071°31'3 5.6
2018-May-21 00:27N 20°52' E 071°31'3 7.1
2018-May-21 00:00N 20°49' E 071°30'4 8.3
2018-May-20 23:30N 20°44' E 071°30'611.3
2018-May-20 23:00N 20°41' E 071°25'611.3
2018-May-20 22:29N 20°38' E 071°20'711.9
2018-May-20 21:56N 20°34' E 071°15'512.0
2018-May-20 21:30N 20°31' E 071°10'612.4
2018-May-20 21:00N 20°28' E 071°04'712.8
2018-May-20 20:28N 20°24' E 070°58'610.9
2018-May-20 19:56N 20°23' E 070°52'511.2
2018-May-20 19:30N 20°25' E 070°47'612.0
2018-May-20 18:59N 20°27' E 070°41'815.1
2018-May-20 18:28N 20°29' E 070°34'817.4
2018-May-20 18:00N 20°31' E 070°25'917.6
2018-May-20 17:30N 20°34' E 070°16'917.9
2018-May-20 17:00N 20°37' E 070°07'917.7
2018-May-20 16:30N 20°40' E 069°58'917.9
2018-May-20 16:00N 20°43' E 069°49'917.9
2018-May-20 15:31N 20°46' E 069°40'918.0
2018-May-20 15:00N 20°49' E 069°31'1217.8
2018-May-20 14:20N 20°54' E 069°20'617.7
2018-May-20 14:00N 20°56' E 069°14'  

Dump ship's entire track history